Sycamore, Illinois
Current Conditions -  °F | °C
As of 7:55 AM on Thursday 23 Oct 2014 (Local Time) from KDKB Reporting Station
Haze Haze  
Wind Chill: 27°   Ceiling: Unl
Heat Index: 33°   Visibility: 2mi
Dew Point: 32°   Wind: 6mph
Humidity: 97%   Direction: 150°SSE
Pressure: 30.21"   Gusts: NA
Location:  41.99°N, 88.68°W
Report Text: KDKB 231255Z AUTO 15005KT 2SM BR CLR 01/00 A3021 RMK AO2 T00050001
Loading
Personal Weather Stations






























Interactive Weather Map
Tropical Storm Tracking
New forecast layout! Learn more

10-Day Weather Forecast

Advertisements
Track Severe Weather on mobile